createdAt,value
2022-12-01T00:01:16.406Z,19.23
2022-12-01T00:03:43.072Z,20.33
2022-12-01T00:06:17.963Z,21.70
2022-12-01T00:09:05.053Z,23.95
2022-12-01T00:11:33.073Z,25.63
2022-12-01T00:13:59.674Z,20.35
2022-12-01T00:16:26.328Z,25.95
2022-12-01T00:18:53.256Z,26.17
2022-12-01T00:21:23.005Z,18.25
2022-12-01T00:23:55.182Z,25.88
2022-12-01T00:26:22.738Z,21.75
2022-12-01T00:28:51.214Z,20.92
2022-12-01T00:31:18.080Z,19.00
2022-12-01T00:33:44.742Z,24.77
2022-12-01T00:36:11.485Z,16.88
2022-12-01T00:38:38.873Z,22.00
2022-12-01T00:41:05.639Z,21.30
2022-12-01T00:43:32.580Z,24.05
2022-12-01T00:45:59.456Z,19.15
2022-12-01T00:48:26.071Z,13.40
2022-12-01T00:50:53.571Z,13.32
2022-12-01T00:53:20.878Z,11.45
2022-12-01T00:55:47.467Z,19.52
2022-12-01T00:58:14.030Z,12.77
2022-12-01T01:00:40.634Z,15.57
2022-12-01T01:03:07.712Z,18.73
2022-12-01T01:05:42.024Z,21.02
2022-12-01T01:08:13.438Z,20.05
2022-12-01T01:10:41.283Z,15.27
2022-12-01T01:13:07.846Z,14.80
2022-12-01T01:15:34.513Z,18.95
2022-12-01T01:18:01.622Z,16.27
2022-12-01T01:20:28.863Z,17.92
2022-12-01T01:22:55.420Z,22.52
2022-12-01T01:25:22.835Z,14.85
2022-12-01T01:27:49.783Z,15.70
2022-12-01T01:30:16.897Z,16.75
2022-12-01T01:32:43.480Z,20.20
2022-12-01T01:35:10.097Z,16.17
2022-12-01T01:37:36.622Z,25.90
2022-12-01T01:40:03.442Z,18.27
2022-12-01T01:42:30.024Z,18.00
2022-12-01T01:44:58.789Z,25.30
2022-12-01T01:47:32.918Z,19.42
2022-12-01T01:50:06.246Z,20.52
2022-12-01T01:52:35.943Z,16.75
2022-12-01T01:55:02.930Z,23.33
2022-12-01T01:57:33.298Z,23.33
2022-12-01T02:00:08.012Z,20.42
2022-12-01T02:02:40.798Z,20.35
2022-12-01T02:05:11.152Z,23.48
2022-12-01T02:07:39.868Z,22.15
2022-12-01T02:10:09.177Z,23.50
2022-12-01T02:12:54.472Z,18.27
2022-12-01T02:15:39.627Z,22.33
2022-12-01T02:18:43.180Z,21.55
2022-12-01T02:21:44.266Z,16.20
2022-12-01T02:24:25.967Z,24.45
2022-12-01T02:26:58.627Z,19.52
2022-12-01T02:29:56.145Z,16.17
2022-12-01T02:33:04.909Z,25.55
2022-12-01T02:35:40.378Z,24.23
2022-12-01T02:38:16.208Z,22.58
2022-12-01T02:40:48.474Z,20.00
2022-12-01T02:43:49.361Z,18.67
2022-12-01T02:46:25.364Z,22.02
2022-12-01T02:48:55.400Z,19.42
2022-12-01T02:51:29.014Z,17.08
2022-12-01T02:53:58.700Z,15.88
2022-12-01T02:56:25.604Z,23.23
2022-12-01T02:58:52.302Z,22.35
2022-12-01T03:01:33.869Z,22.77
2022-12-01T03:04:31.146Z,17.00
2022-12-01T03:07:00.315Z,22.67
2022-12-01T03:12:41.618Z,16.73
2022-12-01T03:15:29.764Z,19.70
2022-12-01T03:18:28.470Z,16.03
2022-12-01T03:21:26.715Z,20.02
2022-12-01T03:24:01.761Z,19.20
2022-12-01T03:26:32.656Z,19.70
2022-12-01T03:29:05.655Z,18.13
2022-12-01T03:31:37.782Z,20.27
2022-12-01T03:34:12.483Z,22.90
2022-12-01T03:36:50.141Z,16.15
2022-12-01T03:39:23.986Z,17.52
2022-12-01T03:42:06.870Z,18.77
2022-12-01T03:44:42.278Z,18.13
2022-12-01T03:47:17.072Z,21.73
2022-12-01T03:49:45.227Z,14.90
2022-12-01T03:52:49.491Z,19.45
2022-12-01T03:55:29.413Z,20.33
2022-12-01T03:58:11.389Z,20.48
2022-12-01T04:00:39.073Z,19.52
2022-12-01T04:03:06.487Z,21.42
2022-12-01T04:05:34.846Z,17.33
2022-12-01T04:08:02.007Z,14.77
2022-12-01T04:10:28.833Z,17.20
2022-12-01T04:12:59.385Z,21.23
2022-12-01T04:15:27.273Z,21.92
2022-12-01T04:17:54.135Z,20.75
2022-12-01T04:20:21.302Z,19.50
2022-12-01T04:22:48.260Z,18.88
2022-12-01T04:25:14.972Z,19.48
2022-12-01T04:27:41.542Z,17.80
2022-12-01T04:30:09.021Z,17.60
2022-12-01T04:32:42.324Z,19.75
2022-12-01T04:35:11.911Z,15.68
2022-12-01T04:37:39.532Z,15.75
2022-12-01T04:40:07.127Z,15.77
2022-12-01T04:42:33.723Z,17.13
2022-12-01T04:45:00.320Z,20.30
2022-12-01T04:47:26.922Z,13.55
2022-12-01T04:49:54.437Z,19.17
2022-12-01T04:52:20.991Z,21.05
2022-12-01T04:54:47.540Z,16.77
2022-12-01T04:57:14.128Z,21.15
2022-12-01T04:59:40.707Z,20.30
2022-12-01T05:02:07.673Z,20.52
2022-12-01T05:04:38.445Z,17.48
2022-12-01T05:07:05.232Z,18.83
2022-12-01T05:09:31.884Z,18.52
2022-12-01T05:11:58.462Z,21.20
2022-12-01T05:14:25.055Z,25.30
2022-12-01T05:16:51.657Z,21.50
2022-12-01T05:19:36.972Z,18.55
2022-12-01T05:22:03.516Z,21.27
2022-12-01T05:24:30.078Z,17.27
2022-12-01T05:26:56.722Z,19.98
2022-12-01T05:29:23.318Z,20.77
2022-12-01T05:31:49.921Z,16.33
2022-12-01T05:34:16.615Z,15.60
2022-12-01T05:36:43.224Z,16.55
2022-12-01T05:39:09.868Z,21.23
2022-12-01T05:41:36.775Z,19.30
2022-12-01T05:44:03.380Z,21.45
2022-12-01T05:46:29.960Z,19.63
2022-12-01T05:48:56.500Z,21.13
2022-12-01T05:51:23.067Z,20.90
2022-12-01T05:53:50.011Z,18.60
2022-12-01T05:56:16.633Z,17.70
2022-12-01T05:58:43.216Z,20.20
2022-12-01T06:01:09.897Z,16.15
2022-12-01T06:03:36.480Z,20.20
2022-12-01T06:06:03.061Z,23.27
2022-12-01T06:08:29.822Z,16.48
2022-12-01T06:10:56.381Z,20.77
2022-12-01T06:13:23.106Z,19.55
2022-12-01T06:16:01.244Z,18.40
2022-12-01T06:18:30.037Z,19.13
2022-12-01T06:20:56.648Z,19.27
2022-12-01T06:23:27.598Z,20.50
2022-12-01T06:25:56.663Z,18.13
2022-12-01T06:28:23.254Z,20.42
2022-12-01T06:30:49.854Z,20.42
2022-12-01T06:33:16.457Z,24.55
2022-12-01T06:35:43.075Z,18.60
2022-12-01T06:38:09.660Z,21.08
2022-12-01T06:40:36.492Z,15.63
2022-12-01T06:43:03.056Z,15.25
2022-12-01T06:45:30.353Z,23.88
2022-12-01T06:47:57.680Z,18.83
2022-12-01T06:50:25.277Z,21.13
2022-12-01T06:52:52.879Z,18.15
2022-12-01T06:55:19.591Z,19.45
2022-12-01T06:57:46.642Z,20.58
2022-12-01T07:00:14.557Z,52.47
2022-12-01T07:02:41.565Z,39.00
2022-12-01T07:05:08.514Z,33.95
2022-12-01T07:07:41.053Z,34.95
2022-12-01T07:10:09.843Z,70.13
2022-12-01T07:12:36.748Z,63.78
2022-12-01T07:15:04.499Z,125.43
2022-12-01T07:17:31.046Z,66.40
2022-12-01T07:19:58.103Z,78.13
2022-12-01T07:22:29.539Z,60.08
2022-12-01T07:24:58.904Z,34.63
2022-12-01T07:27:25.516Z,38.78
2022-12-01T07:29:52.109Z,48.65
2022-12-01T07:32:18.754Z,31.35
2022-12-01T07:34:45.315Z,29.88
2022-12-01T07:37:11.850Z,27.90
2022-12-01T07:41:32.246Z,44.58
2022-12-01T07:43:58.886Z,34.22
2022-12-01T07:46:27.244Z,30.58
2022-12-01T07:48:54.988Z,34.05
2022-12-01T07:51:23.124Z,34.10
2022-12-01T07:53:50.958Z,42.25
2022-12-01T07:56:18.963Z,38.78
2022-12-01T07:58:45.692Z,36.00
2022-12-01T08:01:24.824Z,38.00
2022-12-01T08:03:53.866Z,23.35
2022-12-01T08:06:21.190Z,28.35
2022-12-01T08:08:47.923Z,23.63
2022-12-01T08:11:17.619Z,22.98
2022-12-01T08:13:44.980Z,30.05
2022-12-01T08:16:14.689Z,23.58
2022-12-01T08:18:42.735Z,22.13
2022-12-01T08:21:11.890Z,29.65
2022-12-01T08:23:38.694Z,18.00
2022-12-01T08:26:08.233Z,20.42
2022-12-01T08:28:38.952Z,26.45
2022-12-01T08:31:12.359Z,23.80
2022-12-01T08:33:39.218Z,20.02
2022-12-01T08:36:06.843Z,16.45
2022-12-01T08:38:33.674Z,20.30
2022-12-01T08:41:05.539Z,26.75
2022-12-01T08:43:56.579Z,20.15
2022-12-01T08:46:18.872Z,17.73
2022-12-01T08:48:45.658Z,11.68
2022-12-01T08:51:18.365Z,6.95
2022-12-01T08:53:47.744Z,6.28
2022-12-01T08:56:21.243Z,6.32
2022-12-01T08:58:48.279Z,6.20
2022-12-01T09:01:16.572Z,8.20
2022-12-01T09:03:44.245Z,6.43
2022-12-01T09:06:16.083Z,6.10
2022-12-01T09:08:43.347Z,9.05
2022-12-01T09:11:16.014Z,7.50
2022-12-01T09:13:43.550Z,5.07
2022-12-01T09:16:17.288Z,6.60
2022-12-01T09:18:45.504Z,6.65
2022-12-01T09:21:21.166Z,6.20
2022-12-01T09:23:48.700Z,3.78
2022-12-01T09:26:18.672Z,8.35
2022-12-01T09:28:46.566Z,3.60
2022-12-01T09:31:15.138Z,6.22
2022-12-01T09:36:09.026Z,5.03
2022-12-01T09:38:37.101Z,4.57
2022-12-01T09:41:18.245Z,5.60
2022-12-01T09:43:54.054Z,4.15
2022-12-01T09:46:26.585Z,9.05
2022-12-01T09:48:57.248Z,4.43
2022-12-01T09:51:26.301Z,7.40
2022-12-01T09:53:59.739Z,7.85
2022-12-01T09:56:27.632Z,8.20
2022-12-01T09:58:57.401Z,8.45
2022-12-01T10:01:44.803Z,7.82
2022-12-01T10:04:46.510Z,6.47
2022-12-01T10:07:21.272Z,7.65
2022-12-01T10:09:52.274Z,5.60
2022-12-01T10:12:22.595Z,7.68
2022-12-01T10:14:49.153Z,6.55
2022-12-01T10:17:15.637Z,8.20
2022-12-01T10:20:02.774Z,7.90
2022-12-01T10:22:49.179Z,8.20
2022-12-01T10:25:21.898Z,6.80
2022-12-01T10:28:06.861Z,7.95
2022-12-01T10:30:39.347Z,9.20
2022-12-01T10:33:34.031Z,7.65
2022-12-01T10:36:00.736Z,7.88
2022-12-01T10:38:31.061Z,9.23
2022-12-01T10:41:01.494Z,11.93
2022-12-01T10:43:57.874Z,11.77
2022-12-01T10:46:32.888Z,8.88
2022-12-01T10:49:06.876Z,11.07
2022-12-01T10:51:56.728Z,10.57
2022-12-01T10:54:40.197Z,10.85
2022-12-01T10:57:14.573Z,10.98
2022-12-01T10:59:53.216Z,7.47
2022-12-01T11:02:22.780Z,6.70
2022-12-01T11:04:59.548Z,8.38
2022-12-01T11:07:43.097Z,12.20
2022-12-01T11:10:17.638Z,7.85
2022-12-01T11:12:52.373Z,8.85
2022-12-01T11:15:28.113Z,7.05
2022-12-01T11:18:03.500Z,8.13
2022-12-01T11:20:38.533Z,7.57
2022-12-01T11:23:29.956Z,9.55
2022-12-01T11:25:58.465Z,8.82
2022-12-01T11:28:25.396Z,7.80
2022-12-01T11:30:58.418Z,9.55
2022-12-01T11:33:25.942Z,7.15
2022-12-01T11:35:52.754Z,9.88
2022-12-01T11:38:30.527Z,9.82
2022-12-01T11:40:58.567Z,13.48
2022-12-01T11:43:29.581Z,8.43
2022-12-01T11:45:58.754Z,7.88
2022-12-01T11:48:30.793Z,9.30
2022-12-01T11:51:37.162Z,7.20
2022-12-01T11:54:23.269Z,8.43
2022-12-01T11:57:17.474Z,9.15
2022-12-01T11:59:38.041Z,10.43
2022-12-01T12:02:23.187Z,9.65
2022-12-01T12:05:04.490Z,10.25
2022-12-01T12:07:55.128Z,9.52
2022-12-01T12:10:41.221Z,13.10
2022-12-01T12:13:46.863Z,11.07
2022-12-01T12:16:57.917Z,8.93
2022-12-01T12:20:12.403Z,8.52
2022-12-01T12:22:57.882Z,9.80
2022-12-01T12:25:46.160Z,9.32
2022-12-01T12:28:12.700Z,11.57
2022-12-01T12:31:01.781Z,16.30
2022-12-01T12:33:59.338Z,8.88
2022-12-01T12:36:52.003Z,10.63
2022-12-01T12:39:32.172Z,11.20
2022-12-01T12:41:58.857Z,10.20
2022-12-01T12:44:37.261Z,8.15
2022-12-01T12:47:25.519Z,12.80
2022-12-01T12:50:12.041Z,8.32
2022-12-01T12:52:45.594Z,8.70
2022-12-01T12:55:37.126Z,11.02
2022-12-01T12:58:13.196Z,10.30
2022-12-01T13:00:48.476Z,9.55
2022-12-01T13:03:23.208Z,11.93
2022-12-01T13:06:01.590Z,9.20
2022-12-01T13:08:38.591Z,10.77
2022-12-01T13:11:20.846Z,9.48
2022-12-01T13:14:17.937Z,16.10
2022-12-01T13:16:48.337Z,9.23
2022-12-01T13:19:35.527Z,15.45
2022-12-01T13:22:03.150Z,12.85
2022-12-01T13:24:31.282Z,9.60
2022-12-01T13:27:03.031Z,9.45
2022-12-01T13:29:37.444Z,8.25
2022-12-01T13:32:28.525Z,11.85
2022-12-01T13:34:55.578Z,12.90
2022-12-01T13:37:34.287Z,7.13
2022-12-01T13:42:37.306Z,12.57
2022-12-01T13:45:19.186Z,8.77
2022-12-01T13:47:54.903Z,10.75
2022-12-01T13:50:43.833Z,4.38
2022-12-01T13:53:19.298Z,4.20
2022-12-01T13:56:05.702Z,3.83
2022-12-01T13:58:32.337Z,4.55
2022-12-01T14:01:20.883Z,7.25
2022-12-01T14:04:18.103Z,5.35
2022-12-01T14:06:49.619Z,8.43
2022-12-01T14:09:35.369Z,8.95
2022-12-01T14:12:06.599Z,4.28
2022-12-01T14:14:38.950Z,4.35
2022-12-01T14:17:06.051Z,5.20
2022-12-01T14:19:32.561Z,8.18
2022-12-01T14:22:01.340Z,6.18
2022-12-01T14:27:11.818Z,4.70
2022-12-01T14:29:42.670Z,6.00
2022-12-01T14:32:09.206Z,4.93
2022-12-01T14:34:37.406Z,7.40
2022-12-01T14:37:11.199Z,7.65
2022-12-01T14:39:43.428Z,7.80
2022-12-01T14:43:00.182Z,11.23
2022-12-01T14:45:45.662Z,8.48
2022-12-01T14:48:21.514Z,9.93
2022-12-01T14:50:51.947Z,13.98
2022-12-01T14:53:24.278Z,11.60
2022-12-01T14:55:58.843Z,16.33
2022-12-01T14:58:31.961Z,15.48
2022-12-01T15:01:11.016Z,10.38
2022-12-01T15:03:45.505Z,12.35
2022-12-01T15:06:20.889Z,11.10
2022-12-01T15:09:32.002Z,9.77
2022-12-01T15:11:54.700Z,9.05
2022-12-01T15:14:22.521Z,7.80
2022-12-01T15:16:49.367Z,8.75
2022-12-01T15:19:35.269Z,11.30
2022-12-01T15:22:16.965Z,13.32
2022-12-01T15:24:44.567Z,8.57
2022-12-01T15:27:32.477Z,9.27
2022-12-01T15:30:04.420Z,15.10
2022-12-01T15:32:37.833Z,13.45
2022-12-01T15:35:05.588Z,10.90
2022-12-01T15:37:42.564Z,9.68
2022-12-01T15:43:14.397Z,15.90
2022-12-01T15:45:56.469Z,12.88
2022-12-01T15:48:32.875Z,13.05
2022-12-01T15:51:01.814Z,19.73
2022-12-01T15:56:01.784Z,13.75
2022-12-01T15:58:36.321Z,16.02
2022-12-01T16:01:12.997Z,15.10
2022-12-01T16:04:14.263Z,18.00
2022-12-01T16:06:41.492Z,14.25
2022-12-01T16:09:28.679Z,19.38
2022-12-01T16:12:22.652Z,29.05
2022-12-01T16:14:50.902Z,20.05
2022-12-01T16:17:17.629Z,18.05
2022-12-01T16:19:45.553Z,19.42
2022-12-01T16:22:14.378Z,23.45
2022-12-01T16:24:48.719Z,21.90
2022-12-01T16:27:28.558Z,31.92
2022-12-01T16:29:57.174Z,23.30
2022-12-01T16:32:29.735Z,26.33
2022-12-01T16:34:56.268Z,29.23
2022-12-01T16:37:23.264Z,29.13
2022-12-01T16:39:50.033Z,21.92
2022-12-01T16:42:18.735Z,22.10
2022-12-01T16:44:46.509Z,23.77
2022-12-01T16:47:19.225Z,25.92
2022-12-01T16:49:45.978Z,21.38
